sensor_id;sensor_type;location;lat;lon;timestamp;P1;durP1;ratioP1;P2;durP2;ratioP2
17915;SDS011;9083;49.156;8.982;2024-01-10T00:01:54;25.87;;;10.40;;
17915;SDS011;9083;49.156;8.982;2024-01-10T00:04:21;14.67;;;8.53;;
17915;SDS011;9083;49.156;8.982;2024-01-10T00:06:47;17.90;;;8.83;;
17915;SDS011;9083;49.156;8.982;2024-01-10T00:09:13;19.50;;;10.63;;
17915;SDS011;9083;49.156;8.982;2024-01-10T00:11:41;22.77;;;10.07;;
17915;SDS011;9083;49.156;8.982;2024-01-10T00:14:07;14.87;;;8.53;;
17915;SDS011;9083;49.156;8.982;2024-01-10T00:16:34;23.50;;;10.67;;
17915;SDS011;9083;49.156;8.982;2024-01-10T00:19:00;12.87;;;8.23;;
17915;SDS011;9083;49.156;8.982;2024-01-10T00:21:27;18.37;;;9.17;;
17915;SDS011;9083;49.156;8.982;2024-01-10T00:23:54;12.27;;;8.23;;
17915;SDS011;9083;49.156;8.982;2024-01-10T00:26:20;21.80;;;9.23;;
17915;SDS011;9083;49.156;8.982;2024-01-10T00:28:48;17.13;;;9.03;;
17915;SDS011;9083;49.156;8.982;2024-01-10T00:31:14;26.13;;;11.63;;
17915;SDS011;9083;49.156;8.982;2024-01-10T00:33:40;21.40;;;9.77;;
17915;SDS011;9083;49.156;8.982;2024-01-10T00:36:07;14.67;;;8.37;;
17915;SDS011;9083;49.156;8.982;2024-01-10T00:38:33;23.57;;;10.57;;
17915;SDS011;9083;49.156;8.982;2024-01-10T00:40:59;22.80;;;9.57;;
17915;SDS011;9083;49.156;8.982;2024-01-10T00:43:25;20.03;;;9.93;;
17915;SDS011;9083;49.156;8.982;2024-01-10T00:45:53;26.50;;;10.43;;
17915;SDS011;9083;49.156;8.982;2024-01-10T00:48:19;18.00;;;8.80;;
17915;SDS011;9083;49.156;8.982;2024-01-10T00:50:46;20.83;;;9.07;;
17915;SDS011;9083;49.156;8.982;2024-01-10T00:53:12;16.70;;;9.10;;
17915;SDS011;9083;49.156;8.982;2024-01-10T00:55:39;22.00;;;9.30;;
17915;SDS011;9083;49.156;8.982;2024-01-10T00:58:05;21.13;;;10.03;;
17915;SDS011;9083;49.156;8.982;2024-01-10T01:00:31;18.67;;;9.23;;
17915;SDS011;9083;49.156;8.982;2024-01-10T01:02:59;21.43;;;10.13;;
17915;SDS011;9083;49.156;8.982;2024-01-10T01:05:25;20.83;;;9.80;;
17915;SDS011;9083;49.156;8.982;2024-01-10T01:07:52;20.57;;;8.93;;
17915;SDS011;9083;49.156;8.982;2024-01-10T01:10:18;27.83;;;11.20;;
17915;SDS011;9083;49.156;8.982;2024-01-10T01:12:44;16.17;;;9.03;;
17915;SDS011;9083;49.156;8.982;2024-01-10T01:15:10;27.10;;;10.83;;
17915;SDS011;9083;49.156;8.982;2024-01-10T01:17:37;18.07;;;8.93;;
17915;SDS011;9083;49.156;8.982;2024-01-10T01:20:05;18.73;;;8.33;;
17915;SDS011;9083;49.156;8.982;2024-01-10T01:22:31;23.70;;;10.23;;
17915;SDS011;9083;49.156;8.982;2024-01-10T01:24:58;15.30;;;8.53;;
17915;SDS011;9083;49.156;8.982;2024-01-10T01:27:24;23.43;;;9.00;;
17915;SDS011;9083;49.156;8.982;2024-01-10T01:29:50;23.87;;;10.60;;
17915;SDS011;9083;49.156;8.982;2024-01-10T01:32:16;25.83;;;10.20;;
17915;SDS011;9083;49.156;8.982;2024-01-10T01:34:43;24.30;;;10.77;;
17915;SDS011;9083;49.156;8.982;2024-01-10T01:37:10;25.37;;;11.10;;
17915;SDS011;9083;49.156;8.982;2024-01-10T01:39:36;18.07;;;8.47;;
17915;SDS011;9083;49.156;8.982;2024-01-10T01:42:03;24.53;;;9.27;;
17915;SDS011;9083;49.156;8.982;2024-01-10T01:44:28;22.10;;;9.30;;
17915;SDS011;9083;49.156;8.982;2024-01-10T01:46:56;27.13;;;11.97;;
17915;SDS011;9083;49.156;8.982;2024-01-10T01:49:23;18.90;;;9.90;;
17915;SDS011;9083;49.156;8.982;2024-01-10T01:51:50;23.80;;;10.40;;
17915;SDS011;9083;49.156;8.982;2024-01-10T01:54:18;26.43;;;12.03;;
17915;SDS011;9083;49.156;8.982;2024-01-10T01:56:45;24.67;;;11.23;;
17915;SDS011;9083;49.156;8.982;2024-01-10T01:59:11;23.40;;;9.70;;
17915;SDS011;9083;49.156;8.982;2024-01-10T02:01:38;25.97;;;11.10;;
17915;SDS011;9083;49.156;8.982;2024-01-10T02:04:05;21.60;;;11.80;;
17915;SDS011;9083;49.156;8.982;2024-01-10T02:06:32;25.50;;;10.53;;
17915;SDS011;9083;49.156;8.982;2024-01-10T02:08:58;18.97;;;8.33;;
17915;SDS011;9083;49.156;8.982;2024-01-10T02:11:26;28.33;;;10.57;;
17915;SDS011;9083;49.156;8.982;2024-01-10T02:13:52;19.20;;;10.13;;
17915;SDS011;9083;49.156;8.982;2024-01-10T02:16:20;27.93;;;11.60;;
17915;SDS011;9083;49.156;8.982;2024-01-10T02:18:48;24.97;;;11.77;;
17915;SDS011;9083;49.156;8.982;2024-01-10T02:21:14;26.07;;;10.03;;
17915;SDS011;9083;49.156;8.982;2024-01-10T02:23:40;24.97;;;10.83;;
17915;SDS011;9083;49.156;8.982;2024-01-10T02:26:08;26.67;;;11.07;;
17915;SDS011;9083;49.156;8.982;2024-01-10T02:28:34;24.00;;;10.30;;
17915;SDS011;9083;49.156;8.982;2024-01-10T02:31:00;20.57;;;10.10;;
17915;SDS011;9083;49.156;8.982;2024-01-10T02:33:28;25.57;;;11.53;;
17915;SDS011;9083;49.156;8.982;2024-01-10T02:35:54;29.33;;;10.23;;
17915;SDS011;9083;49.156;8.982;2024-01-10T02:38:20;20.03;;;9.67;;
17915;SDS011;9083;49.156;8.982;2024-01-10T02:40:48;30.40;;;11.50;;
17915;SDS011;9083;49.156;8.982;2024-01-10T02:43:16;20.83;;;9.17;;
17915;SDS011;9083;49.156;8.982;2024-01-10T02:45:42;18.33;;;10.60;;
17915;SDS011;9083;49.156;8.982;2024-01-10T02:48:08;21.30;;;9.40;;
17915;SDS011;9083;49.156;8.982;2024-01-10T02:50:34;22.77;;;10.17;;
17915;SDS011;9083;49.156;8.982;2024-01-10T02:53:03;22.70;;;10.93;;
17915;SDS011;9083;49.156;8.982;2024-01-10T02:55:29;23.03;;;9.70;;
17915;SDS011;9083;49.156;8.982;2024-01-10T02:57:56;23.77;;;10.70;;
17915;SDS011;9083;49.156;8.982;2024-01-10T03:00:23;21.80;;;10.40;;
17915;SDS011;9083;49.156;8.982;2024-01-10T03:02:49;20.17;;;10.20;;
17915;SDS011;9083;49.156;8.982;2024-01-10T03:05:16;26.87;;;11.30;;
17915;SDS011;9083;49.156;8.982;2024-01-10T03:07:42;19.97;;;8.83;;
17915;SDS011;9083;49.156;8.982;2024-01-10T03:10:08;26.03;;;10.20;;
17915;SDS011;9083;49.156;8.982;2024-01-10T03:12:35;29.23;;;11.03;;
17915;SDS011;9083;49.156;8.982;2024-01-10T03:15:02;30.47;;;11.07;;
17915;SDS011;9083;49.156;8.982;2024-01-10T03:17:30;21.10;;;9.37;;
17915;SDS011;9083;49.156;8.982;2024-01-10T03:19:58;21.50;;;9.23;;
17915;SDS011;9083;49.156;8.982;2024-01-10T03:22:25;20.07;;;9.53;;
17915;SDS011;9083;49.156;8.982;2024-01-10T03:24:51;20.83;;;9.03;;
17915;SDS011;9083;49.156;8.982;2024-01-10T03:27:17;28.10;;;9.90;;
17915;SDS011;9083;49.156;8.982;2024-01-10T03:29:43;14.77;;;8.77;;
17915;SDS011;9083;49.156;8.982;2024-01-10T03:32:10;26.73;;;10.53;;
17915;SDS011;9083;49.156;8.982;2024-01-10T03:34:37;19.97;;;9.77;;
17915;SDS011;9083;49.156;8.982;2024-01-10T03:37:04;25.43;;;10.93;;
17915;SDS011;9083;49.156;8.982;2024-01-10T03:39:30;18.83;;;9.27;;
17915;SDS011;9083;49.156;8.982;2024-01-10T03:41:57;35.33;;;10.67;;
17915;SDS011;9083;49.156;8.982;2024-01-10T03:44:23;18.77;;;9.07;;
17915;SDS011;9083;49.156;8.982;2024-01-10T03:46:49;17.50;;;10.37;;
17915;SDS011;9083;49.156;8.982;2024-01-10T03:49:15;19.20;;;9.77;;
17915;SDS011;9083;49.156;8.982;2024-01-10T03:51:44;24.83;;;10.40;;
17915;SDS011;9083;49.156;8.982;2024-01-10T03:54:10;22.77;;;9.67;;
17915;SDS011;9083;49.156;8.982;2024-01-10T03:56:36;18.90;;;9.60;;
17915;SDS011;9083;49.156;8.982;2024-01-10T03:59:03;25.63;;;10.60;;
17915;SDS011;9083;49.156;8.982;2024-01-10T04:01:29;20.07;;;9.60;;
17915;SDS011;9083;49.156;8.982;2024-01-10T04:03:55;20.77;;;9.90;;
17915;SDS011;9083;49.156;8.982;2024-01-10T04:06:21;21.77;;;9.77;;
17915;SDS011;9083;49.156;8.982;2024-01-10T04:08:49;22.97;;;9.57;;
17915;SDS011;9083;49.156;8.982;2024-01-10T04:11:15;17.20;;;9.30;;
17915;SDS011;9083;49.156;8.982;2024-01-10T04:13:41;26.87;;;11.03;;
17915;SDS011;9083;49.156;8.982;2024-01-10T04:16:09;23.27;;;9.97;;
17915;SDS011;9083;49.156;8.982;2024-01-10T04:18:35;24.07;;;10.07;;
17915;SDS011;9083;49.156;8.982;2024-01-10T04:21:02;24.53;;;10.90;;
17915;SDS011;9083;49.156;8.982;2024-01-10T04:23:28;22.37;;;9.57;;
17915;SDS011;9083;49.156;8.982;2024-01-10T04:25:57;26.80;;;9.43;;
17915;SDS011;9083;49.156;8.982;2024-01-10T04:28:23;20.37;;;11.40;;
17915;SDS011;9083;49.156;8.982;2024-01-10T04:30:49;18.97;;;11.17;;
17915;SDS011;9083;49.156;8.982;2024-01-10T04:33:15;28.10;;;10.97;;
17915;SDS011;9083;49.156;8.982;2024-01-10T04:35:42;24.13;;;10.67;;
17915;SDS011;9083;49.156;8.982;2024-01-10T04:38:08;26.37;;;10.87;;
17915;SDS011;9083;49.156;8.982;2024-01-10T04:40:34;21.93;;;9.57;;
17915;SDS011;9083;49.156;8.982;2024-01-10T04:43:02;19.87;;;9.40;;
17915;SDS011;9083;49.156;8.982;2024-01-10T04:45:28;19.20;;;8.93;;
17915;SDS011;9083;49.156;8.982;2024-01-10T04:47:55;31.33;;;10.27;;
17915;SDS011;9083;49.156;8.982;2024-01-10T04:50:21;18.37;;;10.17;;
17915;SDS011;9083;49.156;8.982;2024-01-10T04:52:47;23.83;;;9.67;;
17915;SDS011;9083;49.156;8.982;2024-01-10T04:55:13;17.07;;;9.60;;
17915;SDS011;9083;49.156;8.982;2024-01-10T04:57:40;19.77;;;9.80;;
17915;SDS011;9083;49.156;8.982;2024-01-10T05:00:08;21.27;;;10.50;;
17915;SDS011;9083;49.156;8.982;2024-01-10T05:02:35;15.93;;;8.40;;
17915;SDS011;9083;49.156;8.982;2024-01-10T05:05:01;21.67;;;9.23;;
17915;SDS011;9083;49.156;8.982;2024-01-10T05:07:29;24.33;;;10.40;;
17915;SDS011;9083;49.156;8.982;2024-01-10T05:09:55;25.50;;;9.90;;
17915;SDS011;9083;49.156;8.982;2024-01-10T05:12:21;19.63;;;8.63;;
17915;SDS011;9083;49.156;8.982;2024-01-10T05:14:47;23.37;;;9.57;;
17915;SDS011;9083;49.156;8.982;2024-01-10T05:17:15;24.70;;;10.60;;
17915;SDS011;9083;49.156;8.982;2024-01-10T05:19:41;27.20;;;10.73;;
17915;SDS011;9083;49.156;8.982;2024-01-10T05:22:08;17.70;;;9.00;;
17915;SDS011;9083;49.156;8.982;2024-01-10T05:24:34;28.03;;;11.47;;
17915;SDS011;9083;49.156;8.982;2024-01-10T05:27:01;16.27;;;8.37;;
17915;SDS011;9083;49.156;8.982;2024-01-10T05:29:27;28.80;;;9.80;;
17915;SDS011;9083;49.156;8.982;2024-01-10T05:31:53;21.27;;;9.77;;
17915;SDS011;9083;49.156;8.982;2024-01-10T05:34:21;28.47;;;11.30;;
17915;SDS011;9083;49.156;8.982;2024-01-10T05:36:47;30.83;;;11.40;;
17915;SDS011;9083;49.156;8.982;2024-01-10T05:39:14;20.30;;;9.13;;
17915;SDS011;9083;49.156;8.982;2024-01-10T05:41:41;20.83;;;10.20;;
17915;SDS011;9083;49.156;8.982;2024-01-10T05:44:08;19.77;;;9.23;;
17915;SDS011;9083;49.156;8.982;2024-01-10T05:46:34;20.67;;;10.23;;
17915;SDS011;9083;49.156;8.982;2024-01-10T05:49:01;21.67;;;10.20;;
17915;SDS011;9083;49.156;8.982;2024-01-10T05:51:30;23.17;;;10.30;;
17915;SDS011;9083;49.156;8.982;2024-01-10T05:53:57;26.67;;;10.27;;
17915;SDS011;9083;49.156;8.982;2024-01-10T05:56:23;22.23;;;9.63;;
17915;SDS011;9083;49.156;8.982;2024-01-10T05:58:49;21.77;;;9.13;;
17915;SDS011;9083;49.156;8.982;2024-01-10T06:01:16;25.07;;;11.40;;
17915;SDS011;9083;49.156;8.982;2024-01-10T06:03:42;21.43;;;9.27;;
17915;SDS011;9083;49.156;8.982;2024-01-10T06:06:09;28.70;;;11.87;;
17915;SDS011;9083;49.156;8.982;2024-01-10T06:08:37;22.27;;;10.43;;
17915;SDS011;9083;49.156;8.982;2024-01-10T06:11:03;18.00;;;10.33;;
17915;SDS011;9083;49.156;8.982;2024-01-10T06:13:31;21.90;;;9.60;;
17915;SDS011;9083;49.156;8.982;2024-01-10T06:15:57;22.10;;;10.00;;
17915;SDS011;9083;49.156;8.982;2024-01-10T06:18:23;22.70;;;10.13;;
17915;SDS011;9083;49.156;8.982;2024-01-10T06:20:49;21.90;;;9.10;;
17915;SDS011;9083;49.156;8.982;2024-01-10T06:23:15;17.67;;;10.60;;
17915;SDS011;9083;49.156;8.982;2024-01-10T06:25:43;22.37;;;9.83;;
17915;SDS011;9083;49.156;8.982;2024-01-10T06:28:09;27.30;;;9.93;;
17915;SDS011;9083;49.156;8.982;2024-01-10T06:30:35;24.27;;;12.00;;
17915;SDS011;9083;49.156;8.982;2024-01-10T06:33:02;17.70;;;9.53;;
17915;SDS011;9083;49.156;8.982;2024-01-10T06:35:29;20.47;;;9.17;;
17915;SDS011;9083;49.156;8.982;2024-01-10T06:37:56;29.13;;;9.37;;
17915;SDS011;9083;49.156;8.982;2024-01-10T06:40:22;22.77;;;10.07;;
17915;SDS011;9083;49.156;8.982;2024-01-10T06:42:49;20.33;;;9.27;;
17915;SDS011;9083;49.156;8.982;2024-01-10T06:45:16;20.30;;;9.50;;
17915;SDS011;9083;49.156;8.982;2024-01-10T06:47:42;22.53;;;8.53;;
17915;SDS011;9083;49.156;8.982;2024-01-10T06:50:08;20.03;;;10.20;;
17915;SDS011;9083;49.156;8.982;2024-01-10T06:52:35;22.27;;;9.23;;
17915;SDS011;9083;49.156;8.982;2024-01-10T06:55:02;18.50;;;11.23;;
17915;SDS011;9083;49.156;8.982;2024-01-10T06:57:29;23.70;;;9.87;;
17915;SDS011;9083;49.156;8.982;2024-01-10T06:59:56;26.73;;;10.00;;
17915;SDS011;9083;49.156;8.982;2024-01-10T07:02:23;21.03;;;10.43;;
17915;SDS011;9083;49.156;8.982;2024-01-10T07:04:50;25.83;;;11.13;;
17915;SDS011;9083;49.156;8.982;2024-01-10T07:07:16;18.10;;;8.80;;
17915;SDS011;9083;49.156;8.982;2024-01-10T07:09:42;20.33;;;8.80;;
17915;SDS011;9083;49.156;8.982;2024-01-10T07:12:09;19.40;;;8.70;;
17915;SDS011;9083;49.156;8.982;2024-01-10T07:14:35;24.20;;;10.67;;
17915;SDS011;9083;49.156;8.982;2024-01-10T07:17:03;22.00;;;9.63;;
17915;SDS011;9083;49.156;8.982;2024-01-10T07:19:29;21.47;;;10.30;;
17915;SDS011;9083;49.156;8.982;2024-01-10T07:21:56;17.30;;;9.17;;
17915;SDS011;9083;49.156;8.982;2024-01-10T07:24:22;16.63;;;8.43;;
17915;SDS011;9083;49.156;8.982;2024-01-10T07:26:48;27.83;;;11.40;;
17915;SDS011;9083;49.156;8.982;2024-01-10T07:29:15;31.20;;;10.50;;
17915;SDS011;9083;49.156;8.982;2024-01-10T07:31:41;25.73;;;10.93;;
17915;SDS011;9083;49.156;8.982;2024-01-10T07:34:08;26.60;;;11.30;;
17915;SDS011;9083;49.156;8.982;2024-01-10T07:36:41;21.93;;;9.57;;
17915;SDS011;9083;49.156;8.982;2024-01-10T07:39:07;20.90;;;10.30;;
17915;SDS011;9083;49.156;8.982;2024-01-10T07:41:33;17.43;;;9.60;;
17915;SDS011;9083;49.156;8.982;2024-01-10T07:44:00;21.03;;;9.50;;
17915;SDS011;9083;49.156;8.982;2024-01-10T07:46:26;26.77;;;11.00;;
17915;SDS011;9083;49.156;8.982;2024-01-10T07:48:53;27.47;;;10.90;;
17915;SDS011;9083;49.156;8.982;2024-01-10T07:51:20;23.17;;;10.00;;
17915;SDS011;9083;49.156;8.982;2024-01-10T07:53:47;29.00;;;10.10;;
17915;SDS011;9083;49.156;8.982;2024-01-10T07:56:13;27.33;;;10.50;;
17915;SDS011;9083;49.156;8.982;2024-01-10T07:58:40;27.27;;;10.27;;
17915;SDS011;9083;49.156;8.982;2024-01-10T08:01:06;23.77;;;9.60;;
17915;SDS011;9083;49.156;8.982;2024-01-10T08:03:32;23.20;;;10.93;;
17915;SDS011;9083;49.156;8.982;2024-01-10T08:05:59;29.83;;;11.47;;
17915;SDS011;9083;49.156;8.982;2024-01-10T08:08:27;20.30;;;10.10;;
17915;SDS011;9083;49.156;8.982;2024-01-10T08:10:53;24.70;;;11.57;;
17915;SDS011;9083;49.156;8.982;2024-01-10T08:13:19;29.67;;;10.63;;
17915;SDS011;9083;49.156;8.982;2024-01-10T08:15:46;22.53;;;10.17;;
17915;SDS011;9083;49.156;8.982;2024-01-10T08:18:12;22.07;;;8.10;;
17915;SDS011;9083;49.156;8.982;2024-01-10T08:20:39;26.07;;;10.87;;
17915;SDS011;9083;49.156;8.982;2024-01-10T08:23:05;25.13;;;9.43;;
17915;SDS011;9083;49.156;8.982;2024-01-10T08:25:33;19.00;;;9.83;;
17915;SDS011;9083;49.156;8.982;2024-01-10T08:27:59;31.93;;;10.27;;
17915;SDS011;9083;49.156;8.982;2024-01-10T08:30:26;18.10;;;8.93;;
17915;SDS011;9083;49.156;8.982;2024-01-10T08:32:52;25.20;;;10.33;;
17915;SDS011;9083;49.156;8.982;2024-01-10T08:35:18;24.53;;;10.33;;
17915;SDS011;9083;49.156;8.982;2024-01-10T08:37:45;32.67;;;11.57;;
17915;SDS011;9083;49.156;8.982;2024-01-10T08:40:11;26.70;;;10.70;;
17915;SDS011;9083;49.156;8.982;2024-01-10T08:42:41;27.30;;;11.23;;
17915;SDS011;9083;49.156;8.982;2024-01-10T08:45:08;30.60;;;11.73;;
17915;SDS011;9083;49.156;8.982;2024-01-10T08:47:36;25.57;;;10.37;;
17915;SDS011;9083;49.156;8.982;2024-01-10T08:50:03;19.90;;;9.93;;
17915;SDS011;9083;49.156;8.982;2024-01-10T08:52:30;21.87;;;10.17;;
17915;SDS011;9083;49.156;8.982;2024-01-10T08:54:56;27.50;;;10.67;;
17915;SDS011;9083;49.156;8.982;2024-01-10T08:57:23;23.67;;;9.83;;
17915;SDS011;9083;49.156;8.982;2024-01-10T08:59:52;23.10;;;11.43;;
17915;SDS011;9083;49.156;8.982;2024-01-10T09:02:18;22.80;;;9.97;;
17915;SDS011;9083;49.156;8.982;2024-01-10T09:04:44;25.27;;;10.50;;
17915;SDS011;9083;49.156;8.982;2024-01-10T09:07:10;34.13;;;12.40;;
17915;SDS011;9083;49.156;8.982;2024-01-10T09:09:37;26.50;;;12.07;;
17915;SDS011;9083;49.156;8.982;2024-01-10T09:12:03;24.37;;;12.17;;
17915;SDS011;9083;49.156;8.982;2024-01-10T09:14:30;26.83;;;10.30;;
17915;SDS011;9083;49.156;8.982;2024-01-10T09:16:57;27.13;;;10.63;;
17915;SDS011;9083;49.156;8.982;2024-01-10T09:19:28;23.10;;;10.83;;
17915;SDS011;9083;49.156;8.982;2024-01-10T09:21:54;26.70;;;11.77;;
17915;SDS011;9083;49.156;8.982;2024-01-10T09:24:21;23.47;;;12.00;;
17915;SDS011;9083;49.156;8.982;2024-01-10T09:26:47;24.53;;;11.17;;
17915;SDS011;9083;49.156;8.982;2024-01-10T09:29:13;32.47;;;11.47;;
17915;SDS011;9083;49.156;8.982;2024-01-10T09:31:40;31.43;;;12.67;;
17915;SDS011;9083;49.156;8.982;2024-01-10T09:34:07;30.27;;;13.97;;
17915;SDS011;9083;49.156;8.982;2024-01-10T09:36:34;24.23;;;10.50;;
17915;SDS011;9083;49.156;8.982;2024-01-10T09:39:00;22.37;;;10.13;;
17915;SDS011;9083;49.156;8.982;2024-01-10T09:41:27;22.57;;;10.50;;
17915;SDS011;9083;49.156;8.982;2024-01-10T09:43:54;30.57;;;11.87;;
17915;SDS011;9083;49.156;8.982;2024-01-10T09:46:21;29.40;;;13.83;;
17915;SDS011;9083;49.156;8.982;2024-01-10T09:48:48;28.57;;;12.10;;
17915;SDS011;9083;49.156;8.982;2024-01-10T09:51:15;21.53;;;10.93;;
17915;SDS011;9083;49.156;8.982;2024-01-10T09:53:43;24.90;;;11.90;;
17915;SDS011;9083;49.156;8.982;2024-01-10T09:56:10;26.57;;;10.90;;
17915;SDS011;9083;49.156;8.982;2024-01-10T09:58:36;21.03;;;9.97;;
17915;SDS011;9083;49.156;8.982;2024-01-10T10:01:04;25.47;;;10.83;;
17915;SDS011;9083;49.156;8.982;2024-01-10T10:03:31;24.80;;;11.73;;
17915;SDS011;9083;49.156;8.982;2024-01-10T10:06:00;27.93;;;12.67;;
17915;SDS011;9083;49.156;8.982;2024-01-10T10:08:28;26.97;;;11.57;;
17915;SDS011;9083;49.156;8.982;2024-01-10T10:10:54;24.13;;;11.77;;
17915;SDS011;9083;49.156;8.982;2024-01-10T10:13:23;31.27;;;13.70;;
17915;SDS011;9083;49.156;8.982;2024-01-10T10:15:56;29.53;;;12.87;;
17915;SDS011;9083;49.156;8.982;2024-01-10T10:18:23;30.13;;;12.00;;
17915;SDS011;9083;49.156;8.982;2024-01-10T10:21:03;26.53;;;12.13;;
17915;SDS011;9083;49.156;8.982;2024-01-10T10:23:33;29.03;;;11.53;;
17915;SDS011;9083;49.156;8.982;2024-01-10T10:26:01;27.97;;;12.63;;
17915;SDS011;9083;49.156;8.982;2024-01-10T10:28:35;33.63;;;14.27;;
17915;SDS011;9083;49.156;8.982;2024-01-10T10:31:02;22.27;;;12.37;;
17915;SDS011;9083;49.156;8.982;2024-01-10T10:33:29;25.73;;;12.33;;
17915;SDS011;9083;49.156;8.982;2024-01-10T10:35:58;27.70;;;12.83;;
17915;SDS011;9083;49.156;8.982;2024-01-10T10:38:24;20.83;;;11.67;;
17915;SDS011;9083;49.156;8.982;2024-01-10T10:40:52;22.40;;;10.50;;
17915;SDS011;9083;49.156;8.982;2024-01-10T10:43:19;29.97;;;12.63;;
17915;SDS011;9083;49.156;8.982;2024-01-10T10:45:47;23.00;;;10.87;;
17915;SDS011;9083;49.156;8.982;2024-01-10T10:48:14;31.83;;;11.83;;
17915;SDS011;9083;49.156;8.982;2024-01-10T10:50:42;29.27;;;13.37;;
17915;SDS011;9083;49.156;8.982;2024-01-10T10:53:15;31.43;;;12.57;;
17915;SDS011;9083;49.156;8.982;2024-01-10T10:55:43;29.97;;;13.97;;
17915;SDS011;9083;49.156;8.982;2024-01-10T10:58:12;30.03;;;11.77;;
17915;SDS011;9083;49.156;8.982;2024-01-10T11:00:39;31.40;;;11.90;;
17915;SDS011;9083;49.156;8.982;2024-01-10T11:03:07;25.77;;;12.13;;
17915;SDS011;9083;49.156;8.982;2024-01-10T11:05:33;29.33;;;12.63;;
17915;SDS011;9083;49.156;8.982;2024-01-10T11:08:01;24.70;;;11.53;;
17915;SDS011;9083;49.156;8.982;2024-01-10T11:10:29;29.60;;;13.63;;
17915;SDS011;9083;49.156;8.982;2024-01-10T11:13:00;22.90;;;11.57;;
17915;SDS011;9083;49.156;8.982;2024-01-10T11:15:40;34.00;;;14.40;;
17915;SDS011;9083;49.156;8.982;2024-01-10T11:18:22;30.97;;;13.20;;
17915;SDS011;9083;49.156;8.982;2024-01-10T11:21:02;30.97;;;15.13;;
17915;SDS011;9083;49.156;8.982;2024-01-10T11:23:38;24.40;;;11.57;;
17915;SDS011;9083;49.156;8.982;2024-01-10T11:26:05;28.33;;;13.80;;
17915;SDS011;9083;49.156;8.982;2024-01-10T11:28:32;32.30;;;15.53;;
17915;SDS011;9083;49.156;8.982;2024-01-10T11:31:00;32.17;;;14.70;;
17915;SDS011;9083;49.156;8.982;2024-01-10T11:33:30;31.10;;;15.43;;
17915;SDS011;9083;49.156;8.982;2024-01-10T11:36:06;25.40;;;12.73;;
17915;SDS011;9083;49.156;8.982;2024-01-10T11:38:34;29.27;;;13.97;;
17915;SDS011;9083;49.156;8.982;2024-01-10T11:41:04;27.53;;;13.50;;
17915;SDS011;9083;49.156;8.982;2024-01-10T11:43:30;30.53;;;14.20;;
17915;SDS011;9083;49.156;8.982;2024-01-10T11:45:56;28.40;;;13.37;;
17915;SDS011;9083;49.156;8.982;2024-01-10T11:48:27;30.67;;;13.47;;
17915;SDS011;9083;49.156;8.982;2024-01-10T11:50:53;28.80;;;13.57;;
17915;SDS011;9083;49.156;8.982;2024-01-10T11:53:37;34.63;;;13.40;;
17915;SDS011;9083;49.156;8.982;2024-01-10T11:56:08;32.83;;;14.53;;
17915;SDS011;9083;49.156;8.982;2024-01-10T11:58:45;26.30;;;13.13;;
17915;SDS011;9083;49.156;8.982;2024-01-10T12:01:17;23.37;;;12.10;;
17915;SDS011;9083;49.156;8.982;2024-01-10T12:03:46;29.33;;;13.90;;
17915;SDS011;9083;49.156;8.982;2024-01-10T12:06:13;25.20;;;12.40;;
17915;SDS011;9083;49.156;8.982;2024-01-10T12:08:40;29.07;;;14.13;;
17915;SDS011;9083;49.156;8.982;2024-01-10T12:11:06;28.27;;;14.23;;
17915;SDS011;9083;49.156;8.982;2024-01-10T12:13:33;29.63;;;12.87;;
17915;SDS011;9083;49.156;8.982;2024-01-10T12:16:00;31.13;;;15.27;;
17915;SDS011;9083;49.156;8.982;2024-01-10T12:18:26;29.30;;;13.50;;
17915;SDS011;9083;49.156;8.982;2024-01-10T12:20:54;24.30;;;14.00;;
17915;SDS011;9083;49.156;8.982;2024-01-10T12:23:20;28.03;;;12.57;;
17915;SDS011;9083;49.156;8.982;2024-01-10T12:25:48;29.80;;;13.80;;
17915;SDS011;9083;49.156;8.982;2024-01-10T12:28:15;29.47;;;13.63;;
17915;SDS011;9083;49.156;8.982;2024-01-10T12:30:42;22.87;;;11.50;;
17915;SDS011;9083;49.156;8.982;2024-01-10T12:33:08;31.07;;;16.13;;
17915;SDS011;9083;49.156;8.982;2024-01-10T12:35:35;28.60;;;12.80;;
17915;SDS011;9083;49.156;8.982;2024-01-10T12:38:04;34.97;;;15.83;;
17915;SDS011;9083;49.156;8.982;2024-01-10T12:40:31;28.77;;;14.53;;
17915;SDS011;9083;49.156;8.982;2024-01-10T12:43:01;28.17;;;13.30;;
17915;SDS011;9083;49.156;8.982;2024-01-10T12:45:27;26.37;;;12.10;;
17915;SDS011;9083;49.156;8.982;2024-01-10T12:47:54;26.60;;;11.83;;
17915;SDS011;9083;49.156;8.982;2024-01-10T12:50:20;27.40;;;14.20;;
17915;SDS011;9083;49.156;8.982;2024-01-10T12:52:46;28.40;;;14.03;;
17915;SDS011;9083;49.156;8.982;2024-01-10T12:55:15;30.10;;;14.83;;
17915;SDS011;9083;49.156;8.982;2024-01-10T12:57:42;28.07;;;13.87;;
17915;SDS011;9083;49.156;8.982;2024-01-10T13:00:09;26.60;;;13.57;;
17915;SDS011;9083;49.156;8.982;2024-01-10T13:02:36;28.30;;;12.93;;
17915;SDS011;9083;49.156;8.982;2024-01-10T13:05:03;26.30;;;13.60;;
17915;SDS011;9083;49.156;8.982;2024-01-10T13:07:29;26.53;;;12.97;;
17915;SDS011;9083;49.156;8.982;2024-01-10T13:09:57;28.70;;;12.83;;
17915;SDS011;9083;49.156;8.982;2024-01-10T13:12:25;28.17;;;13.87;;
17915;SDS011;9083;49.156;8.982;2024-01-10T13:14:51;24.90;;;12.30;;
17915;SDS011;9083;49.156;8.982;2024-01-10T13:17:18;31.07;;;13.60;;
17915;SDS011;9083;49.156;8.982;2024-01-10T13:19:44;31.77;;;13.67;;
17915;SDS011;9083;49.156;8.982;2024-01-10T13:22:13;30.77;;;13.53;;
17915;SDS011;9083;49.156;8.982;2024-01-10T13:24:41;29.57;;;14.40;;
17915;SDS011;9083;49.156;8.982;2024-01-10T13:27:07;29.60;;;14.63;;
17915;SDS011;9083;49.156;8.982;2024-01-10T13:29:36;35.23;;;14.23;;
17915;SDS011;9083;49.156;8.982;2024-01-10T13:32:03;32.70;;;14.87;;
17915;SDS011;9083;49.156;8.982;2024-01-10T13:34:29;29.73;;;15.07;;
17915;SDS011;9083;49.156;8.982;2024-01-10T13:36:56;30.27;;;13.83;;
17915;SDS011;9083;49.156;8.982;2024-01-10T13:39:22;31.90;;;15.33;;
17915;SDS011;9083;49.156;8.982;2024-01-10T13:41:48;32.40;;;15.23;;
17915;SDS011;9083;49.156;8.982;2024-01-10T13:44:15;37.93;;;16.77;;
17915;SDS011;9083;49.156;8.982;2024-01-10T13:46:42;33.60;;;13.60;;
17915;SDS011;9083;49.156;8.982;2024-01-10T13:49:09;39.03;;;15.70;;
17915;SDS011;9083;49.156;8.982;2024-01-10T13:51:36;40.43;;;17.17;;
17915;SDS011;9083;49.156;8.982;2024-01-10T13:54:02;34.97;;;14.33;;
17915;SDS011;9083;49.156;8.982;2024-01-10T13:56:29;30.67;;;13.03;;
17915;SDS011;9083;49.156;8.982;2024-01-10T13:58:57;34.00;;;16.80;;
17915;SDS011;9083;49.156;8.982;2024-01-10T14:01:23;34.03;;;15.77;;
17915;SDS011;9083;49.156;8.982;2024-01-10T14:03:51;33.93;;;15.87;;
17915;SDS011;9083;49.156;8.982;2024-01-10T14:06:17;29.20;;;15.20;;
17915;SDS011;9083;49.156;8.982;2024-01-10T14:08:43;31.17;;;14.27;;
17915;SDS011;9083;49.156;8.982;2024-01-10T14:11:12;31.57;;;14.73;;
17915;SDS011;9083;49.156;8.982;2024-01-10T14:13:39;31.27;;;14.87;;
17915;SDS011;9083;49.156;8.982;2024-01-10T14:16:05;44.33;;;16.07;;
17915;SDS011;9083;49.156;8.982;2024-01-10T14:18:32;34.97;;;15.97;;
17915;SDS011;9083;49.156;8.982;2024-01-10T14:20:59;35.20;;;16.10;;
17915;SDS011;9083;49.156;8.982;2024-01-10T14:23:25;33.90;;;15.10;;
17915;SDS011;9083;49.156;8.982;2024-01-10T14:25:52;37.23;;;16.50;;
17915;SDS011;9083;49.156;8.982;2024-01-10T14:28:18;33.47;;;13.83;;
17915;SDS011;9083;49.156;8.982;2024-01-10T14:30:45;32.63;;;14.30;;
17915;SDS011;9083;49.156;8.982;2024-01-10T14:33:11;34.17;;;13.80;;
17915;SDS011;9083;49.156;8.982;2024-01-10T14:35:38;27.40;;;14.23;;
17915;SDS011;9083;49.156;8.982;2024-01-10T14:38:06;27.80;;;13.67;;